createdAt,value
2018-02-22T00:00:33.074Z,0
2018-02-22T00:01:13.715Z,0
2018-02-22T00:01:54.189Z,0
2018-02-22T00:02:34.817Z,0
2018-02-22T00:03:15.340Z,0
2018-02-22T00:03:55.917Z,0
2018-02-22T00:04:36.574Z,0
2018-02-22T00:05:17.115Z,0
2018-02-22T00:05:57.692Z,0
2018-02-22T00:06:38.203Z,0
2018-02-22T00:07:18.828Z,0
2018-02-22T00:07:59.384Z,0
2018-02-22T00:08:39.948Z,0
2018-02-22T00:09:20.489Z,0
2018-02-22T00:10:01.041Z,0
2018-02-22T00:10:41.591Z,0
2018-02-22T00:11:22.097Z,0
2018-02-22T00:12:02.688Z,0
2018-02-22T00:12:43.223Z,0
2018-02-22T00:13:23.717Z,0
2018-02-22T00:14:04.304Z,0
2018-02-22T00:14:44.870Z,0
2018-02-22T00:15:25.421Z,0
2018-02-22T00:16:05.988Z,0
2018-02-22T00:16:46.534Z,0
2018-02-22T00:17:27.059Z,0
2018-02-22T00:18:07.614Z,0
2018-02-22T00:18:48.174Z,0
2018-02-22T00:19:28.734Z,0
2018-02-22T00:20:09.340Z,0
2018-02-22T00:20:49.963Z,0
2018-02-22T00:21:30.406Z,0
2018-02-22T00:22:10.923Z,0
2018-02-22T00:22:51.515Z,0
2018-02-22T00:23:32.069Z,0
2018-02-22T00:24:12.621Z,0
2018-02-22T00:24:53.188Z,0
2018-02-22T00:25:33.755Z,0
2018-02-22T00:26:14.314Z,0
2018-02-22T00:26:54.860Z,0
2018-02-22T00:27:35.426Z,0
2018-02-22T00:28:15.975Z,0
2018-02-22T00:28:56.562Z,0
2018-02-22T00:29:37.125Z,0
2018-02-22T00:30:17.706Z,0
2018-02-22T00:30:58.277Z,0
2018-02-22T00:31:38.838Z,0
2018-02-22T00:32:19.397Z,0
2018-02-22T00:32:59.942Z,0
2018-02-22T00:33:40.512Z,0
2018-02-22T00:34:21.068Z,0
2018-02-22T00:35:01.636Z,0
2018-02-22T00:35:42.249Z,0
2018-02-22T00:36:22.810Z,0
2018-02-22T00:37:03.366Z,0
2018-02-22T00:37:43.922Z,0
2018-02-22T00:38:24.496Z,0
2018-02-22T00:39:05.053Z,0
2018-02-22T00:39:45.612Z,0
2018-02-22T00:40:26.158Z,0
2018-02-22T00:41:06.716Z,0
2018-02-22T00:41:47.270Z,0
2018-02-22T00:42:27.850Z,0
2018-02-22T00:43:08.401Z,0
2018-02-22T00:43:48.973Z,0
2018-02-22T00:44:29.542Z,0
2018-02-22T00:45:10.105Z,0
2018-02-22T00:45:50.663Z,0
2018-02-22T00:46:31.224Z,0
2018-02-22T00:47:11.786Z,0
2018-02-22T00:47:52.359Z,0
2018-02-22T00:48:32.909Z,0
2018-02-22T00:49:13.482Z,0
2018-02-22T00:49:54.029Z,0
2018-02-22T00:50:34.592Z,0
2018-02-22T00:51:15.163Z,0
2018-02-22T00:51:55.713Z,0
2018-02-22T00:52:36.278Z,0
2018-02-22T00:53:16.830Z,0
2018-02-22T00:53:57.397Z,0
2018-02-22T00:54:37.975Z,0
2018-02-22T00:55:18.518Z,0
2018-02-22T00:55:59.070Z,0
2018-02-22T00:56:39.626Z,0
2018-02-22T00:57:20.197Z,0
2018-02-22T00:58:00.765Z,0
2018-02-22T00:58:41.314Z,0
2018-02-22T00:59:21.875Z,0
2018-02-22T01:00:02.414Z,0
2018-02-22T01:00:42.974Z,0
2018-02-22T01:01:23.514Z,0
2018-02-22T01:02:04.067Z,0
2018-02-22T01:02:44.633Z,0
2018-02-22T01:03:25.198Z,0
2018-02-22T01:04:05.799Z,0
2018-02-22T01:04:46.338Z,0
2018-02-22T01:05:26.900Z,0
2018-02-22T01:06:07.454Z,0
2018-02-22T01:06:48.004Z,0
2018-02-22T01:07:28.580Z,0
2018-02-22T01:08:09.125Z,0
2018-02-22T01:08:49.673Z,0
2018-02-22T01:09:30.225Z,0
2018-02-22T01:10:10.767Z,0
2018-02-22T01:10:51.323Z,0
2018-02-22T01:11:31.890Z,0
2018-02-22T01:12:12.486Z,0
2018-02-22T01:12:53.034Z,0
2018-02-22T01:13:33.583Z,0
2018-02-22T01:14:14.157Z,0
2018-02-22T01:14:54.711Z,0
2018-02-22T01:15:35.264Z,0
2018-02-22T01:16:15.850Z,0
2018-02-22T01:16:56.419Z,0
2018-02-22T01:17:36.968Z,0
2018-02-22T01:18:17.529Z,0
2018-02-22T01:18:58.082Z,0
2018-02-22T01:19:38.630Z,0
2018-02-22T01:20:19.182Z,0
2018-02-22T01:20:59.745Z,0
2018-02-22T01:21:40.308Z,0
2018-02-22T01:22:20.846Z,0
2018-02-22T01:23:01.417Z,0
2018-02-22T01:23:41.969Z,0
2018-02-22T01:24:22.545Z,0
2018-02-22T01:25:03.107Z,0
2018-02-22T01:25:43.668Z,0
2018-02-22T01:26:24.223Z,0
2018-02-22T01:27:04.758Z,0
2018-02-22T01:27:45.308Z,0
2018-02-22T01:28:25.871Z,0
2018-02-22T01:29:06.435Z,0
2018-02-22T01:29:46.986Z,0
2018-02-22T01:30:27.533Z,0
2018-02-22T01:31:08.118Z,0
2018-02-22T01:31:48.693Z,0
2018-02-22T01:32:29.246Z,0
2018-02-22T01:33:09.784Z,0
2018-02-22T01:33:50.382Z,0
2018-02-22T01:34:30.882Z,0
2018-02-22T01:35:11.444Z,0
2018-02-22T01:35:52.000Z,0
2018-02-22T01:36:32.554Z,0
2018-02-22T01:37:13.106Z,0
2018-02-22T01:37:53.651Z,0
2018-02-22T01:38:34.241Z,0
2018-02-22T01:39:14.828Z,0
2018-02-22T01:39:55.327Z,0
2018-02-22T01:40:35.889Z,0
2018-02-22T01:41:16.435Z,0
2018-02-22T01:41:57.009Z,0
2018-02-22T01:42:37.593Z,0
2018-02-22T01:43:18.153Z,0
2018-02-22T01:43:58.710Z,0
2018-02-22T01:44:39.273Z,0
2018-02-22T01:45:19.818Z,0
2018-02-22T01:46:00.373Z,0
2018-02-22T01:46:40.937Z,0
2018-02-22T01:47:21.486Z,0
2018-02-22T01:48:02.038Z,0
2018-02-22T01:48:42.602Z,0
2018-02-22T01:49:23.161Z,0
2018-02-22T01:50:04.453Z,0
2018-02-22T01:50:44.272Z,0
2018-02-22T01:51:24.840Z,0
2018-02-22T01:52:05.385Z,0
2018-02-22T01:52:45.970Z,0
2018-02-22T01:53:26.583Z,0
2018-02-22T01:54:07.134Z,0
2018-02-22T01:54:47.683Z,0
2018-02-22T01:55:28.240Z,0
2018-02-22T01:56:08.800Z,0
2018-02-22T01:56:49.357Z,0
2018-02-22T01:57:29.927Z,0
2018-02-22T01:58:10.753Z,0
2018-02-22T01:58:51.250Z,0
2018-02-22T01:59:31.826Z,0
2018-02-22T02:00:12.791Z,0
2018-02-22T02:00:53.286Z,0
2018-02-22T02:01:33.851Z,0
2018-02-22T02:02:14.395Z,0
2018-02-22T02:02:55.100Z,0
2018-02-22T02:03:35.699Z,0
2018-02-22T02:04:16.244Z,0
2018-02-22T02:04:56.799Z,0
2018-02-22T02:05:37.344Z,0
2018-02-22T02:06:17.890Z,0
2018-02-22T02:06:58.416Z,0
2018-02-22T02:07:38.978Z,0
2018-02-22T02:08:19.538Z,0
2018-02-22T02:09:00.097Z,0
2018-02-22T02:09:40.646Z,0
2018-02-22T02:10:21.212Z,0
2018-02-22T02:11:01.772Z,0
2018-02-22T02:11:42.317Z,0
2018-02-22T02:12:22.884Z,0
2018-02-22T02:13:03.433Z,0
2018-02-22T02:13:44.005Z,0
2018-02-22T02:14:24.563Z,0
2018-02-22T02:15:05.145Z,0
2018-02-22T02:15:45.681Z,0
2018-02-22T02:16:26.280Z,0
2018-02-22T02:17:06.810Z,0
2018-02-22T02:17:47.371Z,0
2018-02-22T02:18:27.908Z,0
2018-02-22T02:19:08.473Z,0
2018-02-22T02:19:49.033Z,0
2018-02-22T02:20:29.561Z,0
2018-02-22T02:21:10.108Z,0
2018-02-22T02:21:50.649Z,0
2018-02-22T02:22:31.207Z,0
2018-02-22T02:23:11.766Z,0
2018-02-22T02:23:52.343Z,0
2018-02-22T02:24:32.890Z,0
2018-02-22T02:25:13.461Z,0
2018-02-22T02:25:54.016Z,0
2018-02-22T02:26:34.587Z,0
2018-02-22T02:27:15.156Z,0
2018-02-22T02:27:55.739Z,0
2018-02-22T02:28:36.276Z,0
2018-02-22T02:29:16.844Z,0
2018-02-22T02:29:57.381Z,0
2018-02-22T02:30:37.942Z,0
2018-02-22T02:31:18.498Z,0
2018-02-22T02:31:59.085Z,0
2018-02-22T02:32:39.633Z,0
2018-02-22T02:33:20.200Z,0
2018-02-22T02:34:00.768Z,0
2018-02-22T02:34:41.334Z,0
2018-02-22T02:35:21.900Z,0
2018-02-22T02:36:02.466Z,0
2018-02-22T02:36:43.013Z,0
2018-02-22T02:37:23.584Z,0
2018-02-22T02:38:04.142Z,0
2018-02-22T02:38:44.699Z,0
2018-02-22T02:39:25.258Z,0
2018-02-22T02:40:05.815Z,0
2018-02-22T02:40:46.421Z,0
2018-02-22T02:41:26.898Z,0
2018-02-22T02:42:07.468Z,0
2018-02-22T02:42:48.038Z,0
2018-02-22T02:43:28.588Z,0
2018-02-22T02:44:09.153Z,0
2018-02-22T02:44:49.706Z,0
2018-02-22T02:45:30.264Z,0
2018-02-22T02:46:10.818Z,0
2018-02-22T02:46:51.373Z,0
2018-02-22T02:47:31.914Z,0
2018-02-22T02:48:12.479Z,0
2018-02-22T02:48:53.062Z,0
2018-02-22T02:49:33.625Z,0
2018-02-22T02:50:14.179Z,0
2018-02-22T02:50:54.741Z,0
2018-02-22T02:51:35.324Z,0
2018-02-22T02:52:15.899Z,0
2018-02-22T02:52:56.467Z,0
2018-02-22T02:53:37.051Z,0
2018-02-22T02:54:18.334Z,0
2018-02-22T02:54:58.880Z,0
2018-02-22T02:55:39.426Z,0
2018-02-22T02:56:19.990Z,0
2018-02-22T02:57:00.543Z,0
2018-02-22T02:57:41.095Z,0
2018-02-22T02:58:21.646Z,0
2018-02-22T02:59:02.219Z,0
2018-02-22T02:59:42.753Z,0
2018-02-22T03:00:23.310Z,0
2018-02-22T03:01:03.871Z,0
2018-02-22T03:01:44.437Z,0
2018-02-22T03:02:24.999Z,0
2018-02-22T03:03:05.568Z,0
2018-02-22T03:03:46.124Z,0
2018-02-22T03:04:26.673Z,0
2018-02-22T03:05:07.209Z,0
2018-02-22T03:05:47.769Z,0
2018-02-22T03:06:28.320Z,0
2018-02-22T03:07:08.900Z,0
2018-02-22T03:07:49.458Z,0
2018-02-22T03:08:30.016Z,0
2018-02-22T03:09:10.562Z,0
2018-02-22T03:09:51.117Z,0
2018-02-22T03:10:31.671Z,0
2018-02-22T03:11:12.224Z,0
2018-02-22T03:11:52.805Z,0
2018-02-22T03:12:33.382Z,0
2018-02-22T03:13:13.930Z,0
2018-02-22T03:13:54.494Z,0
2018-02-22T03:14:35.044Z,0
2018-02-22T03:15:15.608Z,0
2018-02-22T03:15:56.171Z,0
2018-02-22T03:16:36.734Z,0
2018-02-22T03:17:17.289Z,0
2018-02-22T03:17:57.841Z,0
2018-02-22T03:18:38.398Z,0
2018-02-22T03:19:18.938Z,0
2018-02-22T03:19:59.493Z,0
2018-02-22T03:20:40.046Z,0
2018-02-22T03:21:20.605Z,0
2018-02-22T03:22:01.165Z,0
2018-02-22T03:22:41.724Z,0
2018-02-22T03:23:22.286Z,0
2018-02-22T03:24:02.840Z,0
2018-02-22T03:24:43.392Z,0
2018-02-22T03:25:23.956Z,0
2018-02-22T03:26:04.525Z,0
2018-02-22T03:26:45.071Z,0
2018-02-22T03:27:25.639Z,0
2018-02-22T03:28:06.198Z,0
2018-02-22T03:28:46.751Z,0
2018-02-22T03:29:27.299Z,0
2018-02-22T03:30:07.867Z,0
2018-02-22T03:30:48.433Z,0
2018-02-22T03:31:28.969Z,0
2018-02-22T03:32:09.536Z,0
2018-02-22T03:32:50.111Z,0
2018-02-22T03:33:30.677Z,0
2018-02-22T03:34:11.236Z,0
2018-02-22T03:34:51.790Z,0
2018-02-22T03:35:32.380Z,0
2018-02-22T03:36:12.972Z,0
2018-02-22T03:36:53.510Z,0
2018-02-22T03:37:34.059Z,0
2018-02-22T03:38:14.603Z,0
2018-02-22T03:38:55.168Z,0
2018-02-22T03:39:35.816Z,0
2018-02-22T03:40:16.359Z,0
2018-02-22T03:40:56.922Z,0
2018-02-22T03:41:37.507Z,0
2018-02-22T03:42:18.063Z,0
2018-02-22T03:42:58.621Z,0
2018-02-22T03:43:39.176Z,0
2018-02-22T03:44:19.742Z,0
2018-02-22T03:45:00.307Z,0
2018-02-22T03:45:40.843Z,0
2018-02-22T03:46:21.389Z,0
2018-02-22T03:47:01.948Z,0
2018-02-22T03:47:42.479Z,0
2018-02-22T03:48:23.049Z,0
2018-02-22T03:49:03.600Z,0
2018-02-22T03:49:44.169Z,0
2018-02-22T03:50:24.733Z,0
2018-02-22T03:51:05.287Z,0
2018-02-22T03:51:45.842Z,0
2018-02-22T03:52:26.386Z,0
2018-02-22T03:53:06.951Z,0
2018-02-22T03:53:47.516Z,0
2018-02-22T03:54:28.126Z,0
2018-02-22T03:55:08.654Z,0
2018-02-22T03:55:49.221Z,0
2018-02-22T03:56:29.776Z,0
2018-02-22T03:57:10.334Z,0
2018-02-22T03:57:50.880Z,0
2018-02-22T03:58:31.446Z,0
2018-02-22T03:59:12.015Z,0
2018-02-22T03:59:52.574Z,0
2018-02-22T04:00:33.133Z,0
2018-02-22T04:01:13.689Z,0
2018-02-22T04:01:54.241Z,0
2018-02-22T04:02:34.799Z,0
2018-02-22T04:03:15.369Z,0
2018-02-22T04:03:55.931Z,0
2018-02-22T04:04:36.500Z,0
2018-02-22T04:05:17.047Z,0
2018-02-22T04:05:57.601Z,0
2018-02-22T04:06:38.173Z,0
2018-02-22T04:07:18.724Z,0
2018-02-22T04:07:59.275Z,0
2018-02-22T04:08:39.836Z,0
2018-02-22T04:09:20.390Z,0
2018-02-22T04:10:01.002Z,0
2018-02-22T04:10:41.568Z,0
2018-02-22T04:11:22.125Z,0
2018-02-22T04:12:02.675Z,0
2018-02-22T04:12:43.219Z,0
2018-02-22T04:13:23.785Z,0
2018-02-22T04:14:04.326Z,0
2018-02-22T04:14:44.879Z,0
2018-02-22T04:15:25.425Z,0
2018-02-22T04:16:05.981Z,0
2018-02-22T04:16:46.545Z,0
2018-02-22T04:17:27.111Z,0
2018-02-22T04:18:07.675Z,0
2018-02-22T04:18:48.238Z,0
2018-02-22T04:19:28.787Z,0
2018-02-22T04:20:09.357Z,0
2018-02-22T04:20:49.896Z,0
2018-02-22T04:21:30.457Z,0
2018-02-22T04:22:11.017Z,0
2018-02-22T04:22:51.580Z,0
2018-02-22T04:23:32.145Z,0
2018-02-22T04:24:12.722Z,0
2018-02-22T04:24:53.284Z,0
2018-02-22T04:25:33.824Z,0
2018-02-22T04:26:14.367Z,0
2018-02-22T04:26:54.946Z,0
2018-02-22T04:27:35.502Z,0
2018-02-22T04:28:16.059Z,0
2018-02-22T04:28:56.619Z,0
2018-02-22T04:29:37.184Z,0
2018-02-22T04:30:17.758Z,0
2018-02-22T04:30:58.334Z,0
2018-02-22T04:31:38.890Z,0
2018-02-22T04:32:19.442Z,0
2018-02-22T04:33:00.013Z,0
2018-02-22T04:33:40.578Z,0
2018-02-22T04:34:21.188Z,0
2018-02-22T04:35:01.734Z,0
2018-02-22T04:35:42.307Z,0
2018-02-22T04:36:22.876Z,0
2018-02-22T04:37:03.418Z,0
2018-02-22T04:37:43.986Z,0
2018-02-22T04:38:24.546Z,0
2018-02-22T04:39:05.110Z,0
2018-02-22T04:39:45.664Z,0
2018-02-22T04:40:26.222Z,0
2018-02-22T04:41:06.789Z,0
2018-02-22T04:41:47.337Z,0
2018-02-22T04:42:27.885Z,0
2018-02-22T04:43:08.457Z,0
2018-02-22T04:43:49.009Z,0
2018-02-22T04:44:29.559Z,0
2018-02-22T04:45:10.120Z,0
2018-02-22T04:45:50.669Z,0
2018-02-22T04:46:31.227Z,0
2018-02-22T04:47:11.782Z,0
2018-02-22T04:47:52.336Z,0
2018-02-22T04:48:32.898Z,0
2018-02-22T04:49:13.463Z,0
2018-02-22T04:49:54.012Z,0
2018-02-22T04:50:34.572Z,0
2018-02-22T04:51:15.144Z,0
2018-02-22T04:51:55.691Z,0
2018-02-22T04:52:36.252Z,0
2018-02-22T04:53:16.787Z,0
2018-02-22T04:53:57.364Z,0
2018-02-22T04:54:37.927Z,0
2018-02-22T04:55:18.485Z,0
2018-02-22T04:55:59.035Z,0
2018-02-22T04:56:39.603Z,0
2018-02-22T04:57:20.170Z,0
2018-02-22T04:58:00.725Z,0
2018-02-22T04:58:41.282Z,0
2018-02-22T04:59:21.828Z,0
2018-02-22T05:00:02.378Z,0
2018-02-22T05:00:42.934Z,0
2018-02-22T05:01:23.487Z,0
2018-02-22T05:02:04.082Z,0
2018-02-22T05:02:44.639Z,0
2018-02-22T05:03:25.199Z,0
2018-02-22T05:04:05.798Z,0
2018-02-22T05:04:46.325Z,0
2018-02-22T05:05:26.894Z,0
2018-02-22T05:06:07.446Z,0
2018-02-22T05:06:48.000Z,0
2018-02-22T05:07:28.551Z,0
2018-02-22T05:08:09.126Z,0
2018-02-22T05:08:49.677Z,0
2018-02-22T05:09:30.242Z,0
2018-02-22T05:10:10.804Z,0
2018-02-22T05:10:51.376Z,0
2018-02-22T05:11:31.934Z,0
2018-02-22T05:12:12.489Z,0
2018-02-22T05:12:53.046Z,0
2018-02-22T05:13:33.599Z,0
2018-02-22T05:14:14.188Z,0
2018-02-22T05:14:54.707Z,0
2018-02-22T05:15:35.263Z,0
2018-02-22T05:16:15.821Z,0
2018-02-22T05:16:56.368Z,0
2018-02-22T05:17:36.925Z,0
2018-02-22T05:18:17.481Z,0
2018-02-22T05:18:58.028Z,0
2018-02-22T05:19:38.584Z,0
2018-02-22T05:20:19.144Z,0
2018-02-22T05:20:59.709Z,0
2018-02-22T05:21:40.281Z,0
2018-02-22T05:22:20.845Z,0
2018-02-22T05:23:01.391Z,0
2018-02-22T05:23:41.948Z,0
2018-02-22T05:24:22.517Z,0
2018-02-22T05:25:03.077Z,0
2018-02-22T05:25:43.621Z,0
2018-02-22T05:26:24.174Z,0
2018-02-22T05:27:04.739Z,0
2018-02-22T05:27:45.282Z,0
2018-02-22T05:28:25.861Z,0
2018-02-22T05:29:06.415Z,0
2018-02-22T05:29:46.956Z,0
2018-02-22T05:30:27.515Z,0
2018-02-22T05:31:08.062Z,0
2018-02-22T05:31:48.610Z,0
2018-02-22T05:32:29.171Z,0
2018-02-22T05:33:09.728Z,0
2018-02-22T05:33:50.292Z,0
2018-02-22T05:34:30.857Z,0
2018-02-22T05:35:11.423Z,0
2018-02-22T05:35:52.004Z,0
2018-02-22T05:36:32.558Z,0
2018-02-22T05:37:13.108Z,0
2018-02-22T05:37:53.739Z,0
2018-02-22T05:38:34.327Z,0
2018-02-22T05:39:14.881Z,0
2018-02-22T05:39:55.433Z,0
2018-02-22T05:40:35.995Z,0
2018-02-22T05:41:16.544Z,0
2018-02-22T05:41:57.334Z,0
2018-02-22T05:42:37.966Z,0
2018-02-22T05:43:18.477Z,0
2018-02-22T05:43:59.038Z,0
2018-02-22T05:44:39.587Z,0
2018-02-22T05:45:20.157Z,0
2018-02-22T05:46:00.716Z,0
2018-02-22T05:46:41.385Z,0
2018-02-22T05:47:22.001Z,0
2018-02-22T05:48:02.549Z,0
2018-02-22T05:48:43.117Z,0
2018-02-22T05:49:23.747Z,0
2018-02-22T05:50:04.249Z,0
2018-02-22T05:50:44.830Z,0
2018-02-22T05:51:25.388Z,0
2018-02-22T05:52:05.942Z,0
2018-02-22T05:52:46.510Z,0
2018-02-22T05:53:27.056Z,0
2018-02-22T05:54:07.705Z,0
2018-02-22T05:54:48.305Z,0
2018-02-22T05:55:28.874Z,0
2018-02-22T05:56:09.432Z,0
2018-02-22T05:56:49.996Z,0
2018-02-22T05:57:30.543Z,0
2018-02-22T05:58:11.213Z,0
2018-02-22T05:58:51.864Z,0
2018-02-22T05:59:32.443Z,0
2018-02-22T06:00:12.998Z,0
2018-02-22T06:00:53.559Z,0
2018-02-22T06:01:34.115Z,0
2018-02-22T06:02:14.668Z,0
2018-02-22T06:02:55.356Z,0
2018-02-22T06:03:35.905Z,0
2018-02-22T06:04:16.497Z,0
2018-02-22T06:04:57.330Z,0
2018-02-22T06:05:37.889Z,0
2018-02-22T06:06:18.528Z,0
2018-02-22T06:06:59.678Z,0
2018-02-22T06:07:40.237Z,0
2018-02-22T06:08:20.787Z,0
2018-02-22T06:09:01.439Z,0
2018-02-22T06:09:42.016Z,0
2018-02-22T06:10:22.577Z,0
2018-02-22T06:11:03.126Z,0
2018-02-22T06:11:43.667Z,0
2018-02-22T06:12:24.240Z,0
2018-02-22T06:13:04.803Z,0
2018-02-22T06:13:45.336Z,0
2018-02-22T06:14:25.896Z,0
2018-02-22T06:15:06.433Z,0
2018-02-22T06:15:46.989Z,0
2018-02-22T06:16:27.546Z,0
2018-02-22T06:17:08.112Z,0
2018-02-22T06:17:48.672Z,0
2018-02-22T06:18:29.232Z,0
2018-02-22T06:19:09.797Z,0
2018-02-22T06:19:50.362Z,0
2018-02-22T06:20:30.923Z,0
2018-02-22T06:21:11.472Z,5
2018-02-22T06:21:52.037Z,5
2018-02-22T06:22:32.584Z,5
2018-02-22T06:23:13.151Z,5
2018-02-22T06:23:53.688Z,5
2018-02-22T06:24:34.235Z,5
2018-02-22T06:25:14.784Z,5
2018-02-22T06:25:55.342Z,5
2018-02-22T06:26:35.891Z,5
2018-02-22T06:27:16.454Z,5
2018-02-22T06:27:57.013Z,5
2018-02-22T06:28:37.557Z,5
2018-02-22T06:29:18.252Z,5
2018-02-22T06:29:58.836Z,5
2018-02-22T06:30:39.409Z,10
2018-02-22T06:31:19.957Z,10
2018-02-22T06:32:00.531Z,10
2018-02-22T06:32:41.088Z,10
2018-02-22T06:33:21.651Z,10
2018-02-22T06:34:02.212Z,10
2018-02-22T06:34:42.774Z,10
2018-02-22T06:35:23.342Z,10
2018-02-22T06:36:03.904Z,10
2018-02-22T06:36:44.479Z,10
2018-02-22T06:37:25.035Z,10
2018-02-22T06:38:05.594Z,10
2018-02-22T06:38:46.145Z,10
2018-02-22T06:39:26.771Z,10
2018-02-22T06:40:07.336Z,15
2018-02-22T06:40:47.884Z,15
2018-02-22T06:41:28.415Z,15
2018-02-22T06:42:08.981Z,15
2018-02-22T06:42:49.559Z,15
2018-02-22T06:43:30.113Z,15
2018-02-22T06:44:10.673Z,15
2018-02-22T06:44:51.232Z,15
2018-02-22T06:45:31.795Z,15
2018-02-22T06:46:12.372Z,15
2018-02-22T06:46:52.954Z,15
2018-02-22T06:47:33.512Z,15
2018-02-22T06:48:14.066Z,15
2018-02-22T06:48:54.621Z,20
2018-02-22T06:49:35.174Z,20
2018-02-22T06:50:15.727Z,20
2018-02-22T06:50:56.284Z,20
2018-02-22T06:51:36.846Z,20
2018-02-22T06:52:17.398Z,20
2018-02-22T06:52:57.973Z,20
2018-02-22T06:53:38.511Z,20
2018-02-22T06:54:19.073Z,20
2018-02-22T06:55:00.085Z,20
2018-02-22T06:55:40.776Z,20
2018-02-22T06:56:21.307Z,20
2018-02-22T06:57:01.845Z,20
2018-02-22T06:57:42.427Z,20
2018-02-22T06:58:23.668Z,25
2018-02-22T06:59:04.250Z,25
2018-02-22T06:59:44.826Z,25
2018-02-22T07:00:25.392Z,25
2018-02-22T07:01:05.937Z,25
2018-02-22T07:01:46.554Z,25
2018-02-22T07:02:27.146Z,25
2018-02-22T07:03:07.799Z,25
2018-02-22T07:03:48.691Z,25
2018-02-22T07:04:29.248Z,25
2018-02-22T07:05:10.405Z,25
2018-02-22T07:05:51.013Z,25
2018-02-22T07:06:34.621Z,25
2018-02-22T07:07:15.459Z,25
2018-02-22T07:07:56.019Z,25
2018-02-22T07:08:37.204Z,30
2018-02-22T07:09:17.874Z,30
2018-02-22T07:12:00.016Z,30
2018-02-22T07:12:40.555Z,30
2018-02-22T07:13:21.232Z,30
2018-02-22T07:14:01.694Z,30
2018-02-22T07:14:42.247Z,30
2018-02-22T07:15:22.857Z,30
2018-02-22T07:16:03.396Z,30
2018-02-22T07:16:43.959Z,30
2018-02-22T07:17:24.543Z,30
2018-02-22T07:18:05.109Z,30
2018-02-22T07:18:45.627Z,30
2018-02-22T07:19:26.217Z,30
2018-02-22T07:20:06.844Z,35
2018-02-22T07:20:47.357Z,35
2018-02-22T07:21:27.937Z,35
2018-02-22T07:22:08.415Z,35
2018-02-22T07:22:50.182Z,35
2018-02-22T07:23:30.616Z,35
2018-02-22T07:24:11.167Z,35
2018-02-22T07:24:55.127Z,35
2018-02-22T07:25:35.660Z,35
2018-02-22T07:26:16.189Z,35
2018-02-22T07:26:56.763Z,40
2018-02-22T07:27:37.266Z,40
2018-02-22T07:28:17.815Z,40
2018-02-22T07:28:58.401Z,40
2018-02-22T07:29:38.998Z,40
2018-02-22T07:30:19.433Z,45
2018-02-22T07:30:59.983Z,45
2018-02-22T07:31:40.488Z,45
2018-02-22T07:32:20.972Z,45
2018-02-22T07:33:01.503Z,45
2018-02-22T07:33:42.043Z,45
2018-02-22T07:34:22.590Z,45
2018-02-22T07:35:03.177Z,45
2018-02-22T07:35:43.643Z,45
2018-02-22T07:36:24.193Z,45
2018-02-22T07:37:04.737Z,45
2018-02-22T07:37:45.302Z,45
2018-02-22T07:38:25.819Z,45
2018-02-22T07:39:06.400Z,45
2018-02-22T07:39:46.972Z,45
2018-02-22T07:40:27.502Z,45
2018-02-22T07:41:08.040Z,45
2018-02-22T07:41:48.583Z,45
2018-02-22T07:42:29.161Z,45
2018-02-22T07:43:09.695Z,45
2018-02-22T07:43:50.166Z,45
2018-02-22T07:44:30.706Z,50
2018-02-22T07:45:11.204Z,50
2018-02-22T07:45:51.724Z,50
2018-02-22T07:46:32.301Z,50
2018-02-22T07:47:12.868Z,50
2018-02-22T07:47:53.390Z,55
2018-02-22T07:48:33.931Z,55
2018-02-22T07:49:14.488Z,55
2018-02-22T07:49:55.008Z,55
2018-02-22T07:50:35.787Z,60
2018-02-22T07:51:16.211Z,60
2018-02-22T07:51:56.796Z,65
2018-02-22T07:52:37.346Z,65
2018-02-22T07:53:17.887Z,65
2018-02-22T07:53:58.488Z,65
2018-02-22T07:54:39.022Z,65
2018-02-22T07:55:19.584Z,65
2018-02-22T07:56:00.135Z,65
2018-02-22T07:56:40.705Z,65
2018-02-22T07:57:21.296Z,70
2018-02-22T07:58:01.897Z,70
2018-02-22T07:58:42.452Z,75
2018-02-22T07:59:23.024Z,70
2018-02-22T08:00:03.673Z,70
2018-02-22T08:00:44.150Z,75
2018-02-22T08:01:24.710Z,75
2018-02-22T08:02:05.278Z,75
2018-02-22T08:02:45.835Z,75
2018-02-22T08:03:26.391Z,75
2018-02-22T08:04:06.942Z,75
2018-02-22T08:04:47.488Z,75
2018-02-22T08:05:28.051Z,80
2018-02-22T08:06:08.599Z,75
2018-02-22T08:06:49.282Z,80
2018-02-22T08:07:29.833Z,85
2018-02-22T08:08:10.394Z,80
2018-02-22T08:08:50.942Z,80
2018-02-22T08:09:31.488Z,80
2018-02-22T08:10:12.088Z,85
2018-02-22T08:10:53.074Z,85
2018-02-22T08:11:33.628Z,85
2018-02-22T08:12:14.198Z,85
2018-02-22T08:12:54.744Z,85
2018-02-22T08:13:35.316Z,85
2018-02-22T08:14:15.870Z,90
2018-02-22T08:14:56.411Z,90
2018-02-22T08:15:36.978Z,90
2018-02-22T08:16:18.208Z,90
2018-02-22T08:16:58.777Z,90
2018-02-22T08:17:39.341Z,90
2018-02-22T08:18:19.863Z,95
2018-02-22T08:19:00.439Z,95
2018-02-22T08:19:41.103Z,95
2018-02-22T08:20:21.688Z,95
2018-02-22T08:21:02.250Z,95
2018-02-22T08:21:43.555Z,100
2018-02-22T08:22:24.806Z,100
2018-02-22T08:23:05.810Z,100
2018-02-22T08:23:46.985Z,100
2018-02-22T08:24:28.263Z,100
2018-02-22T08:25:09.387Z,105
2018-02-22T08:25:49.961Z,105
2018-02-22T08:26:30.814Z,105
2018-02-22T08:27:11.760Z,105
2018-02-22T08:27:52.305Z,105
2018-02-22T08:28:32.863Z,105
2018-02-22T08:29:13.403Z,105
2018-02-22T08:29:54.295Z,105
2018-02-22T08:30:35.056Z,105
2018-02-22T08:31:15.884Z,105
2018-02-22T08:31:56.700Z,105
2018-02-22T08:32:37.527Z,105
2018-02-22T08:33:18.348Z,105
2018-02-22T08:33:59.144Z,105
2018-02-22T08:34:39.710Z,105
2018-02-22T08:35:20.324Z,105
2018-02-22T08:36:00.870Z,105
2018-02-22T08:36:41.430Z,105
2018-02-22T08:37:22.123Z,100
2018-02-22T08:38:02.696Z,100
2018-02-22T08:38:43.254Z,100
2018-02-22T08:39:23.856Z,100
2018-02-22T08:40:04.426Z,100
2018-02-22T08:40:44.974Z,95
2018-02-22T08:41:25.531Z,95
2018-02-22T08:42:06.096Z,95
2018-02-22T08:42:46.658Z,95
2018-02-22T08:43:27.202Z,95
2018-02-22T08:44:07.765Z,95
2018-02-22T08:44:48.332Z,90
2018-02-22T08:45:28.917Z,90
2018-02-22T08:46:09.447Z,90
2018-02-22T08:46:50.016Z,90
2018-02-22T08:47:30.551Z,90
2018-02-22T08:48:11.105Z,90
2018-02-22T08:48:51.665Z,85
2018-02-22T08:49:32.210Z,85
2018-02-22T08:50:12.737Z,90
2018-02-22T08:50:53.297Z,90
2018-02-22T08:51:33.821Z,90
2018-02-22T08:52:14.352Z,90
2018-02-22T08:52:54.907Z,90
2018-02-22T08:53:35.396Z,90
2018-02-22T08:54:16.142Z,90
2018-02-22T08:54:56.662Z,90
2018-02-22T08:55:37.217Z,90
2018-02-22T08:56:17.741Z,90
2018-02-22T08:56:58.297Z,90
2018-02-22T08:57:38.816Z,90
2018-02-22T08:58:19.331Z,85
2018-02-22T08:58:59.879Z,85
2018-02-22T08:59:40.384Z,90
2018-02-22T09:00:21.014Z,90
2018-02-22T09:01:01.576Z,90
2018-02-22T09:01:42.143Z,90
2018-02-22T09:02:22.836Z,95
2018-02-22T09:03:03.200Z,90
2018-02-22T09:03:43.706Z,90
2018-02-22T09:04:24.225Z,95
2018-02-22T09:05:04.791Z,90
2018-02-22T09:05:45.295Z,90
2018-02-22T09:06:25.839Z,90
2018-02-22T09:07:06.360Z,95
2018-02-22T09:07:46.888Z,95
2018-02-22T09:08:27.478Z,95
2018-02-22T09:09:07.977Z,95
2018-02-22T09:09:48.527Z,95
2018-02-22T09:10:29.133Z,100
2018-02-22T09:11:09.649Z,100
2018-02-22T09:11:50.157Z,100
2018-02-22T09:12:30.687Z,95
2018-02-22T09:13:11.241Z,95
2018-02-22T09:13:51.801Z,95
2018-02-22T09:14:32.292Z,100
2018-02-22T09:15:12.845Z,100
2018-02-22T09:15:53.377Z,100
2018-02-22T09:16:33.955Z,105
2018-02-22T09:17:14.487Z,105
2018-02-22T09:17:55.057Z,105
2018-02-22T09:18:35.605Z,105
2018-02-22T09:19:16.093Z,105
2018-02-22T09:19:56.700Z,105
2018-02-22T09:20:37.200Z,105
2018-02-22T09:21:17.737Z,105
2018-02-22T09:21:58.264Z,105
2018-02-22T09:22:38.835Z,105
2018-02-22T09:23:19.335Z,105
2018-02-22T09:23:59.899Z,105
2018-02-22T09:24:40.408Z,105
2018-02-22T09:25:20.983Z,105
2018-02-22T09:26:01.534Z,105
2018-02-22T09:26:42.097Z,105
2018-02-22T09:27:22.669Z,105
2018-02-22T09:28:03.224Z,105
2018-02-22T09:28:43.831Z,105
2018-02-22T09:29:24.374Z,105
2018-02-22T09:30:04.910Z,105
2018-02-22T09:30:45.467Z,105
2018-02-22T09:31:26.094Z,105
2018-02-22T09:32:06.716Z,105
2018-02-22T09:32:47.224Z,105
2018-02-22T09:33:27.782Z,105
2018-02-22T09:34:08.328Z,105
2018-02-22T09:34:48.887Z,100
2018-02-22T09:35:29.452Z,100
2018-02-22T09:36:10.031Z,100
2018-02-22T09:36:50.562Z,100
2018-02-22T09:37:31.114Z,100
2018-02-22T09:38:11.680Z,100
2018-02-22T09:38:52.247Z,105
2018-02-22T09:39:33.222Z,105
2018-02-22T09:40:13.951Z,105
2018-02-22T09:40:54.502Z,105
2018-02-22T09:41:35.082Z,105
2018-02-22T09:42:15.657Z,105
2018-02-22T09:42:56.214Z,105
2018-02-22T09:43:36.798Z,105
2018-02-22T09:44:17.358Z,105
2018-02-22T09:44:57.912Z,110
2018-02-22T09:45:38.475Z,110
2018-02-22T09:46:19.070Z,110
2018-02-22T09:46:59.556Z,110
2018-02-22T09:47:40.103Z,110
2018-02-22T09:48:20.654Z,110
2018-02-22T09:49:01.226Z,115
2018-02-22T09:49:41.740Z,115
2018-02-22T09:50:22.284Z,115
2018-02-22T09:51:02.810Z,115
2018-02-22T09:51:43.355Z,115
2018-02-22T09:52:24.480Z,115
2018-02-22T09:53:05.078Z,115